createdAt,value
2023-06-29T00:00:30.825Z,53.71
2023-06-29T00:01:30.833Z,52.86
2023-06-29T00:02:30.826Z,51.98
2023-06-29T00:03:30.984Z,53.38
2023-06-29T00:04:30.931Z,52.11
2023-06-29T00:05:30.992Z,50.70
2023-06-29T00:06:31.041Z,52.02
2023-06-29T00:07:31.188Z,52.65
2023-06-29T00:08:31.187Z,52.10
2023-06-29T00:09:31.246Z,50.00
2023-06-29T00:10:31.317Z,52.06
2023-06-29T00:11:31.373Z,50.94
2023-06-29T00:12:31.436Z,53.15
2023-06-29T00:13:31.489Z,50.77
2023-06-29T00:14:31.568Z,53.30
2023-06-29T00:15:31.614Z,51.16
2023-06-29T00:16:31.809Z,50.00
2023-06-29T00:17:31.740Z,52.79
2023-06-29T00:18:31.793Z,51.60
2023-06-29T00:19:31.841Z,50.96
2023-06-29T00:20:31.875Z,53.13
2023-06-29T00:21:31.967Z,54.49
2023-06-29T00:22:32.014Z,53.30
2023-06-29T00:23:32.092Z,51.91
2023-06-29T00:24:32.119Z,54.53
2023-06-29T00:25:32.204Z,55.07
2023-06-29T00:26:32.242Z,54.30
2023-06-29T00:27:32.305Z,54.45
2023-06-29T00:28:32.372Z,55.41
2023-06-29T00:29:32.446Z,54.48
2023-06-29T00:30:32.512Z,54.91
2023-06-29T00:31:32.637Z,57.00
2023-06-29T00:32:32.701Z,57.01
2023-06-29T00:33:32.675Z,55.90
2023-06-29T00:34:32.765Z,57.11
2023-06-29T00:35:32.783Z,57.21
2023-06-29T00:36:32.893Z,54.28
2023-06-29T00:37:32.927Z,54.18
2023-06-29T00:38:33.006Z,55.26
2023-06-29T00:39:33.055Z,53.95
2023-06-29T00:40:33.112Z,54.00
2023-06-29T00:41:33.162Z,55.61
2023-06-29T00:42:33.236Z,55.59
2023-06-29T00:43:33.302Z,56.59
2023-06-29T00:44:33.333Z,51.25
2023-06-29T00:45:33.466Z,51.49
2023-06-29T00:46:33.526Z,53.25
2023-06-29T00:47:33.542Z,53.04
2023-06-29T00:48:33.574Z,55.39
2023-06-29T00:49:33.623Z,54.33
2023-06-29T00:50:33.665Z,51.65
2023-06-29T00:51:33.741Z,53.48
2023-06-29T00:52:33.809Z,52.63
2023-06-29T00:53:33.854Z,54.31
2023-06-29T00:54:33.908Z,54.28
2023-06-29T00:55:33.984Z,51.75
2023-06-29T00:56:34.013Z,54.75
2023-06-29T00:57:34.100Z,52.86
2023-06-29T00:58:34.108Z,52.00
2023-06-29T00:59:34.164Z,50.41
2023-06-29T01:00:34.272Z,51.79
2023-06-29T01:01:34.270Z,54.09
2023-06-29T01:02:34.390Z,52.86
2023-06-29T01:03:34.625Z,49.90
2023-06-29T01:04:34.501Z,51.73
2023-06-29T01:05:34.544Z,54.34
2023-06-29T01:06:34.585Z,53.75
2023-06-29T01:07:34.895Z,51.98
2023-06-29T01:08:34.712Z,53.57
2023-06-29T01:09:34.748Z,52.63
2023-06-29T01:10:34.780Z,53.03
2023-06-29T01:11:34.844Z,52.30
2023-06-29T01:12:34.849Z,52.75
2023-06-29T01:13:34.903Z,50.90
2023-06-29T01:14:34.940Z,52.75
2023-06-29T01:15:34.961Z,52.20
2023-06-29T01:16:35.047Z,53.43
2023-06-29T01:17:35.046Z,53.03
2023-06-29T01:18:35.040Z,54.19
2023-06-29T01:19:35.063Z,52.00
2023-06-29T01:20:35.092Z,52.51
2023-06-29T01:21:35.101Z,51.88
2023-06-29T01:22:35.147Z,50.91
2023-06-29T01:23:35.157Z,53.04
2023-06-29T01:24:35.168Z,53.08
2023-06-29T01:25:35.164Z,54.67
2023-06-29T01:26:35.186Z,50.00
2023-06-29T01:27:35.267Z,53.10
2023-06-29T01:28:35.216Z,53.30
2023-06-29T01:29:35.227Z,53.42
2023-06-29T01:30:35.271Z,54.35
2023-06-29T01:31:35.330Z,52.21
2023-06-29T01:32:35.376Z,51.78
2023-06-29T01:33:35.300Z,51.74
2023-06-29T01:34:35.343Z,52.70
2023-06-29T01:35:35.308Z,51.44
2023-06-29T01:36:35.291Z,52.84
2023-06-29T01:37:35.278Z,51.67
2023-06-29T01:38:35.311Z,54.25
2023-06-29T01:39:35.280Z,51.95
2023-06-29T01:40:35.298Z,50.87
2023-06-29T01:41:35.854Z,53.03
2023-06-29T01:42:35.405Z,55.46
2023-06-29T01:43:35.347Z,54.47
2023-06-29T01:44:35.405Z,51.83
2023-06-29T01:45:35.434Z,53.22
2023-06-29T01:46:35.646Z,53.34
2023-06-29T01:47:35.490Z,55.66
2023-06-29T01:48:35.528Z,52.84
2023-06-29T01:49:35.547Z,55.15
2023-06-29T01:50:35.576Z,54.22
2023-06-29T01:51:35.621Z,54.30
2023-06-29T01:52:35.591Z,53.99
2023-06-29T01:53:35.636Z,54.83
2023-06-29T01:54:35.692Z,52.44
2023-06-29T01:55:35.751Z,51.59
2023-06-29T01:56:35.690Z,51.89
2023-06-29T01:57:35.708Z,53.70
2023-06-29T01:58:35.729Z,52.80
2023-06-29T01:59:35.730Z,52.76
2023-06-29T02:00:38.460Z,53.21
2023-06-29T02:01:35.781Z,50.86
2023-06-29T02:02:35.825Z,51.64
2023-06-29T02:03:35.877Z,50.00
2023-06-29T02:04:35.758Z,50.00
2023-06-29T02:05:35.718Z,50.24
2023-06-29T02:06:35.727Z,51.42
2023-06-29T02:07:35.742Z,52.10
2023-06-29T02:08:35.702Z,51.55
2023-06-29T02:09:35.707Z,50.17
2023-06-29T02:10:35.706Z,51.92
2023-06-29T02:11:35.675Z,53.38
2023-06-29T02:12:35.686Z,52.66
2023-06-29T02:13:35.689Z,52.27
2023-06-29T02:14:35.695Z,52.26
2023-06-29T02:15:35.630Z,50.00
2023-06-29T02:16:35.689Z,50.16
2023-06-29T02:17:35.752Z,53.05
2023-06-29T02:18:35.648Z,53.54
2023-06-29T02:19:35.647Z,54.28
2023-06-29T02:20:35.625Z,52.20
2023-06-29T02:21:35.622Z,52.20
2023-06-29T02:22:35.618Z,53.79
2023-06-29T02:23:35.609Z,53.13
2023-06-29T02:24:35.745Z,52.11
2023-06-29T02:25:35.589Z,52.82
2023-06-29T02:26:35.641Z,54.99
2023-06-29T02:27:35.617Z,54.42
2023-06-29T02:28:35.588Z,54.04
2023-06-29T02:29:35.578Z,56.49
2023-06-29T02:30:35.575Z,56.31
2023-06-29T02:31:35.570Z,55.33
2023-06-29T02:32:35.602Z,56.86
2023-06-29T02:33:35.527Z,55.48
2023-06-29T02:34:35.548Z,57.99
2023-06-29T02:35:35.532Z,54.99
2023-06-29T02:36:35.515Z,53.85
2023-06-29T02:37:35.507Z,56.24
2023-06-29T02:38:35.533Z,56.17
2023-06-29T02:39:35.517Z,58.17
2023-06-29T02:40:35.526Z,58.23
2023-06-29T02:41:35.499Z,58.44
2023-06-29T02:42:36.368Z,56.67
2023-06-29T02:43:35.482Z,57.89
2023-06-29T02:44:35.492Z,57.34
2023-06-29T02:45:35.453Z,56.12
2023-06-29T02:46:35.505Z,56.85
2023-06-29T02:47:35.494Z,56.30
2023-06-29T02:48:35.449Z,55.08
2023-06-29T02:49:35.475Z,54.49
2023-06-29T02:50:35.440Z,54.83
2023-06-29T02:51:35.441Z,52.91
2023-06-29T02:52:35.437Z,53.01
2023-06-29T02:53:35.421Z,54.27
2023-06-29T02:54:35.409Z,54.03
2023-06-29T02:55:35.426Z,50.25
2023-06-29T02:56:35.427Z,50.96
2023-06-29T02:57:35.434Z,51.73
2023-06-29T02:58:35.416Z,50.53
2023-06-29T02:59:35.381Z,52.86
2023-06-29T03:00:35.403Z,53.76
2023-06-29T03:01:35.426Z,53.64
2023-06-29T03:02:35.504Z,51.65
2023-06-29T03:03:35.430Z,53.05
2023-06-29T03:04:35.367Z,51.66
2023-06-29T03:05:35.359Z,52.69
2023-06-29T03:06:35.380Z,50.64
2023-06-29T03:07:35.357Z,51.56
2023-06-29T03:08:35.342Z,51.75
2023-06-29T03:09:35.346Z,51.75
2023-06-29T03:10:35.868Z,51.37
2023-06-29T03:11:35.309Z,51.51
2023-06-29T03:12:35.296Z,52.12
2023-06-29T03:13:35.329Z,53.12
2023-06-29T03:14:35.274Z,54.39
2023-06-29T03:15:35.309Z,54.48
2023-06-29T03:16:35.280Z,55.40
2023-06-29T03:17:35.332Z,53.41
2023-06-29T03:18:35.282Z,54.83
2023-06-29T03:19:35.284Z,56.14
2023-06-29T03:20:35.275Z,53.89
2023-06-29T03:21:35.254Z,54.25
2023-06-29T03:22:35.257Z,55.06
2023-06-29T03:23:35.264Z,57.10
2023-06-29T03:24:35.269Z,54.59
2023-06-29T03:25:35.233Z,52.11
2023-06-29T03:26:35.216Z,54.50
2023-06-29T03:27:35.206Z,54.52
2023-06-29T03:28:35.210Z,53.77
2023-06-29T03:29:35.220Z,54.02
2023-06-29T03:30:35.281Z,53.29
2023-06-29T03:31:35.172Z,52.88
2023-06-29T03:32:35.223Z,53.77
2023-06-29T03:33:35.162Z,51.80
2023-06-29T03:34:35.168Z,51.13
2023-06-29T03:35:35.165Z,50.86
2023-06-29T03:36:35.158Z,52.78
2023-06-29T03:37:35.153Z,50.00
2023-06-29T03:38:35.161Z,51.23
2023-06-29T03:39:35.146Z,51.86
2023-06-29T03:40:35.152Z,52.58
2023-06-29T03:41:35.168Z,51.78
2023-06-29T03:42:35.114Z,52.26
2023-06-29T03:43:36.950Z,50.49
2023-06-29T03:44:35.175Z,52.14
2023-06-29T03:45:35.199Z,51.60
2023-06-29T03:46:35.285Z,51.93
2023-06-29T03:47:35.361Z,53.33
2023-06-29T03:48:35.436Z,52.50
2023-06-29T03:49:35.322Z,52.78
2023-06-29T03:50:35.365Z,52.66
2023-06-29T03:51:35.388Z,51.49
2023-06-29T03:52:35.415Z,53.29
2023-06-29T03:53:35.445Z,50.00
2023-06-29T03:54:35.596Z,52.23
2023-06-29T03:55:35.532Z,50.85
2023-06-29T03:56:35.544Z,50.16
2023-06-29T03:57:35.599Z,51.74
2023-06-29T03:58:35.605Z,54.45
2023-06-29T03:59:35.681Z,51.67
2023-06-29T04:00:35.710Z,53.69
2023-06-29T04:01:35.735Z,52.31
2023-06-29T04:02:35.822Z,53.68
2023-06-29T04:03:35.829Z,52.50
2023-06-29T04:04:35.798Z,52.27
2023-06-29T04:05:35.843Z,55.01
2023-06-29T04:06:35.853Z,54.83
2023-06-29T04:07:35.927Z,53.97
2023-06-29T04:08:35.960Z,53.31
2023-06-29T04:09:35.967Z,53.21
2023-06-29T04:10:35.997Z,52.69
2023-06-29T04:11:36.020Z,54.14
2023-06-29T04:12:36.057Z,54.10
2023-06-29T04:13:36.086Z,54.54
2023-06-29T04:14:36.109Z,56.83
2023-06-29T04:15:36.117Z,57.69
2023-06-29T04:16:36.186Z,57.29
2023-06-29T04:17:36.239Z,56.20
2023-06-29T04:18:36.244Z,54.41
2023-06-29T04:19:36.209Z,54.86
2023-06-29T04:20:36.269Z,57.76
2023-06-29T04:21:36.314Z,57.40
2023-06-29T04:22:36.315Z,56.46
2023-06-29T04:23:36.366Z,58.03
2023-06-29T04:24:36.406Z,58.58
2023-06-29T04:25:36.433Z,59.24
2023-06-29T04:26:36.468Z,56.00
2023-06-29T04:27:36.475Z,57.20
2023-06-29T04:28:36.544Z,57.91
2023-06-29T04:29:36.546Z,58.02
2023-06-29T04:30:36.650Z,56.02
2023-06-29T04:31:36.647Z,57.09
2023-06-29T04:32:36.723Z,54.36
2023-06-29T04:33:36.690Z,54.17
2023-06-29T04:34:36.717Z,55.38
2023-06-29T04:35:36.766Z,54.80
2023-06-29T04:36:36.800Z,51.37
2023-06-29T04:37:36.841Z,53.89
2023-06-29T04:38:36.867Z,52.16
2023-06-29T04:39:36.883Z,55.72
2023-06-29T04:40:36.930Z,52.70
2023-06-29T04:41:36.938Z,52.47
2023-06-29T04:42:37.000Z,54.00
2023-06-29T04:43:36.974Z,56.02
2023-06-29T04:44:36.989Z,53.30
2023-06-29T04:45:37.057Z,54.82
2023-06-29T04:46:37.130Z,56.14
2023-06-29T04:47:37.141Z,55.73
2023-06-29T04:48:37.144Z,54.35
2023-06-29T04:49:37.190Z,55.39
2023-06-29T04:50:37.165Z,54.08
2023-06-29T04:51:37.223Z,55.32
2023-06-29T04:52:37.221Z,55.41
2023-06-29T04:53:37.244Z,57.34
2023-06-29T04:54:37.256Z,54.90
2023-06-29T04:55:37.293Z,55.83
2023-06-29T04:56:37.330Z,54.77
2023-06-29T04:57:37.434Z,54.38
2023-06-29T04:58:37.344Z,56.76
2023-06-29T04:59:37.349Z,57.60
2023-06-29T05:00:37.426Z,60.80
2023-06-29T05:01:37.440Z,59.16
2023-06-29T05:02:37.526Z,58.98
2023-06-29T05:03:37.514Z,62.63
2023-06-29T05:04:37.469Z,62.35
2023-06-29T05:05:37.484Z,60.96
2023-06-29T05:06:37.478Z,60.80
2023-06-29T05:07:37.543Z,62.34
2023-06-29T05:08:37.540Z,63.40
2023-06-29T05:09:37.566Z,62.56
2023-06-29T05:10:37.576Z,63.45
2023-06-29T05:11:37.579Z,65.16
2023-06-29T05:12:37.651Z,63.73
2023-06-29T05:13:37.616Z,63.51
2023-06-29T05:14:37.629Z,65.96
2023-06-29T05:15:37.647Z,64.33
2023-06-29T05:16:38.046Z,65.68
2023-06-29T05:17:38.748Z,66.07
2023-06-29T05:18:38.255Z,67.10
2023-06-29T05:19:37.782Z,62.82
2023-06-29T05:20:37.820Z,65.19
2023-06-29T05:21:38.193Z,64.17
2023-06-29T05:22:37.828Z,63.30
2023-06-29T05:23:37.880Z,62.68
2023-06-29T05:24:37.865Z,62.96
2023-06-29T05:25:37.925Z,63.71
2023-06-29T05:26:37.942Z,61.98
2023-06-29T05:27:37.962Z,63.46
2023-06-29T05:28:37.969Z,64.08
2023-06-29T05:29:37.999Z,65.51
2023-06-29T05:30:37.997Z,63.79
2023-06-29T05:31:39.205Z,64.33
2023-06-29T05:32:38.115Z,64.62
2023-06-29T05:33:38.069Z,66.82
2023-06-29T05:34:38.093Z,68.25
2023-06-29T05:35:38.116Z,66.51
2023-06-29T05:36:38.411Z,63.38
2023-06-29T05:37:38.205Z,61.50
2023-06-29T05:38:38.190Z,62.56
2023-06-29T05:39:38.364Z,64.31
2023-06-29T05:40:38.228Z,66.69
2023-06-29T05:41:38.278Z,64.91
2023-06-29T05:42:38.305Z,67.94
2023-06-29T05:43:38.301Z,66.14
2023-06-29T05:44:38.310Z,66.60
2023-06-29T05:45:38.364Z,69.11
2023-06-29T05:46:38.377Z,70.98
2023-06-29T05:47:38.406Z,71.67
2023-06-29T05:48:38.431Z,75.60
2023-06-29T05:49:38.414Z,77.98
2023-06-29T05:50:38.450Z,79.13
2023-06-29T05:51:38.495Z,80.38
2023-06-29T05:52:38.501Z,86.24
2023-06-29T05:53:38.474Z,96.87
2023-06-29T05:54:38.521Z,102.64
2023-06-29T05:55:38.514Z,106.43
2023-06-29T05:56:38.538Z,108.87
2023-06-29T05:57:38.563Z,111.87
2023-06-29T05:58:38.671Z,115.70
2023-06-29T05:59:38.581Z,117.02
2023-06-29T06:00:38.579Z,120.46
2023-06-29T06:01:38.621Z,124.00
2023-06-29T06:02:38.614Z,125.54
2023-06-29T06:03:38.617Z,127.65
2023-06-29T06:04:38.594Z,133.04
2023-06-29T06:05:38.611Z,135.39
2023-06-29T06:06:38.625Z,138.87
2023-06-29T06:07:38.687Z,146.58
2023-06-29T06:08:38.650Z,148.29
2023-06-29T06:09:38.652Z,150.77
2023-06-29T06:10:38.679Z,154.06
2023-06-29T06:11:38.664Z,154.98
2023-06-29T06:12:38.692Z,158.50
2023-06-29T06:13:38.746Z,162.93
2023-06-29T06:14:38.759Z,166.79
2023-06-29T06:15:38.782Z,168.51
2023-06-29T06:16:38.879Z,175.02
2023-06-29T06:17:38.897Z,175.97
2023-06-29T06:18:38.944Z,179.71
2023-06-29T06:19:38.987Z,185.03
2023-06-29T06:20:39.060Z,192.39
2023-06-29T06:21:39.083Z,197.70
2023-06-29T06:22:39.087Z,199.01
2023-06-29T06:23:39.137Z,199.51
2023-06-29T06:24:39.172Z,198.75
2023-06-29T06:25:39.166Z,200.74
2023-06-29T06:26:39.211Z,198.25
2023-06-29T06:27:39.229Z,199.72
2023-06-29T06:28:39.226Z,198.20
2023-06-29T06:29:39.242Z,198.70
2023-06-29T06:30:39.295Z,198.28
2023-06-29T06:31:39.334Z,197.08
2023-06-29T06:32:39.294Z,199.77
2023-06-29T06:33:39.288Z,198.13
2023-06-29T06:34:39.288Z,197.16
2023-06-29T06:35:39.315Z,198.16
2023-06-29T06:36:39.330Z,198.00
2023-06-29T06:37:39.396Z,197.46
2023-06-29T06:38:49.363Z,198.63
2023-06-29T06:39:40.383Z,198.75
2023-06-29T06:40:39.439Z,199.59
2023-06-29T06:41:39.381Z,201.46
2023-06-29T06:42:39.407Z,202.73
2023-06-29T06:43:39.361Z,204.67
2023-06-29T06:44:39.355Z,198.32
2023-06-29T06:45:39.332Z,199.13
2023-06-29T06:46:39.485Z,197.91
2023-06-29T06:47:39.367Z,198.39
2023-06-29T06:48:39.327Z,199.20
2023-06-29T06:49:39.363Z,197.58
2023-06-29T06:50:39.359Z,192.38
2023-06-29T06:51:39.411Z,181.90
2023-06-29T06:52:39.446Z,174.42
2023-06-29T06:53:39.433Z,175.73
2023-06-29T06:54:39.441Z,172.61
2023-06-29T06:55:39.421Z,172.00
2023-06-29T06:56:39.410Z,175.00
2023-06-29T06:57:39.517Z,179.17
2023-06-29T06:58:39.408Z,182.36
2023-06-29T06:59:39.498Z,183.95
2023-06-29T07:00:39.543Z,186.17
2023-06-29T07:01:39.658Z,184.25
2023-06-29T07:02:39.645Z,188.03
2023-06-29T07:03:39.581Z,191.67
2023-06-29T07:04:39.594Z,190.63
2023-06-29T07:05:39.713Z,194.88
2023-06-29T07:06:39.715Z,196.10
2023-06-29T07:07:39.850Z,197.98
2023-06-29T07:08:39.804Z,199.24
2023-06-29T07:09:39.825Z,199.90
2023-06-29T07:10:39.910Z,200.00
2023-06-29T07:11:39.931Z,199.43
2023-06-29T07:12:40.017Z,198.34
2023-06-29T07:13:40.089Z,199.44
2023-06-29T07:14:40.119Z,200.00
2023-06-29T07:15:40.187Z,199.22
2023-06-29T07:16:40.255Z,199.06
2023-06-29T07:17:40.358Z,198.90
2023-06-29T07:18:40.337Z,200.00
2023-06-29T07:21:40.893Z,199.69
2023-06-29T07:24:40.381Z,199.95
2023-06-29T07:25:40.367Z,201.53
2023-06-29T07:26:40.654Z,204.33
2023-06-29T07:27:40.367Z,209.77
2023-06-29T07:28:40.371Z,216.98
2023-06-29T07:29:40.366Z,206.63
2023-06-29T07:30:40.394Z,198.64
2023-06-29T07:31:40.337Z,200.00
2023-06-29T07:32:40.417Z,199.96
2023-06-29T07:33:40.357Z,198.96
2023-06-29T07:34:40.320Z,200.00
2023-06-29T07:35:40.332Z,199.50
2023-06-29T07:36:40.340Z,199.85
2023-06-29T07:37:40.282Z,199.77
2023-06-29T07:38:40.561Z,199.05
2023-06-29T07:39:40.277Z,198.46
2023-06-29T07:40:40.288Z,184.69
2023-06-29T07:41:40.299Z,168.20
2023-06-29T07:42:40.719Z,143.32
2023-06-29T07:43:40.263Z,137.76
2023-06-29T07:44:40.260Z,136.74
2023-06-29T07:45:40.257Z,114.49
2023-06-29T07:46:40.338Z,89.19
2023-06-29T07:47:40.302Z,79.40
2023-06-29T07:48:40.441Z,69.91
2023-06-29T07:49:40.222Z,63.78
2023-06-29T07:50:40.390Z,48.63
2023-06-29T07:51:40.241Z,52.82
2023-06-29T07:52:42.007Z,59.60
2023-06-29T07:53:40.230Z,63.76
2023-06-29T07:54:40.183Z,58.92
2023-06-29T07:55:40.316Z,60.32
2023-06-29T07:58:40.522Z,74.33
2023-06-29T07:59:40.168Z,75.82
2023-06-29T08:00:40.173Z,79.29
2023-06-29T08:01:40.203Z,86.07
2023-06-29T08:02:40.212Z,94.74
2023-06-29T08:03:59.533Z,100.06
2023-06-29T08:07:40.216Z,100.74
2023-06-29T08:08:40.346Z,103.61
2023-06-29T08:09:40.097Z,109.25
2023-06-29T08:10:40.143Z,119.34
2023-06-29T08:11:40.144Z,134.35
2023-06-29T08:12:40.113Z,140.78
2023-06-29T08:13:40.068Z,144.21
2023-06-29T08:14:40.065Z,146.02
2023-06-29T08:15:40.426Z,148.63
2023-06-29T08:16:40.140Z,150.44
2023-06-29T08:17:40.152Z,152.00
2023-06-29T08:18:40.568Z,154.89
2023-06-29T08:19:40.063Z,156.08
2023-06-29T08:20:40.059Z,157.50
2023-06-29T08:21:40.016Z,159.43
2023-06-29T08:22:40.015Z,160.78
2023-06-29T08:23:40.030Z,160.97
2023-06-29T08:24:40.061Z,163.05
2023-06-29T08:25:40.041Z,164.60
2023-06-29T08:26:40.022Z,166.95
2023-06-29T08:27:39.998Z,169.46
2023-06-29T08:28:40.012Z,170.74
2023-06-29T08:29:39.977Z,173.32
2023-06-29T08:30:39.967Z,174.25
2023-06-29T08:31:39.984Z,175.87
2023-06-29T08:32:39.955Z,177.64
2023-06-29T08:33:40.117Z,179.34
2023-06-29T08:34:39.975Z,180.69
2023-06-29T08:35:39.961Z,179.44
2023-06-29T08:36:39.954Z,180.12
2023-06-29T08:37:39.988Z,181.88
2023-06-29T08:38:40.004Z,184.82
2023-06-29T08:39:39.935Z,185.55
2023-06-29T08:40:39.967Z,180.80
2023-06-29T08:41:39.980Z,144.98
2023-06-29T08:42:39.902Z,119.87
2023-06-29T08:43:40.190Z,92.19
2023-06-29T08:44:39.911Z,72.66
2023-06-29T08:45:39.947Z,62.14
2023-06-29T08:46:40.099Z,63.98
2023-06-29T08:47:39.945Z,68.19
2023-06-29T08:48:39.907Z,71.27
2023-06-29T08:49:39.860Z,76.72
2023-06-29T08:50:39.850Z,71.80
2023-06-29T08:51:39.900Z,69.95
2023-06-29T08:52:39.853Z,73.82
2023-06-29T08:53:39.865Z,77.83
2023-06-29T08:54:39.890Z,79.03
2023-06-29T08:55:39.915Z,79.93
2023-06-29T08:56:40.030Z,83.37
2023-06-29T08:57:40.089Z,87.09
2023-06-29T08:58:40.081Z,89.83
2023-06-29T08:59:40.125Z,89.05
2023-06-29T09:00:40.121Z,93.35
2023-06-29T09:01:40.256Z,93.48
2023-06-29T09:02:40.386Z,96.76
2023-06-29T09:03:40.499Z,96.74
2023-06-29T09:04:40.377Z,98.30
2023-06-29T09:05:40.439Z,99.54
2023-06-29T09:06:40.525Z,101.31
2023-06-29T09:07:40.693Z,103.07
2023-06-29T09:08:40.799Z,104.00
2023-06-29T09:09:40.720Z,106.17
2023-06-29T09:10:40.753Z,106.39
2023-06-29T09:11:43.298Z,107.95
2023-06-29T09:12:40.830Z,108.18
2023-06-29T09:13:40.858Z,107.99
2023-06-29T09:14:40.742Z,109.75
2023-06-29T09:15:40.816Z,111.69
2023-06-29T09:16:40.854Z,111.32
2023-06-29T09:17:40.782Z,112.30
2023-06-29T09:18:40.738Z,112.73
2023-06-29T09:19:40.744Z,110.53
2023-06-29T09:20:40.778Z,111.55
2023-06-29T09:21:40.753Z,113.29
2023-06-29T09:22:40.732Z,110.80
2023-06-29T09:23:40.753Z,110.58
2023-06-29T09:24:49.561Z,113.00
2023-06-29T09:25:41.741Z,113.02
2023-06-29T09:26:40.737Z,113.05
2023-06-29T09:27:40.732Z,113.30
2023-06-29T09:28:40.841Z,110.94
2023-06-29T09:29:40.980Z,104.42
2023-06-29T09:30:40.775Z,96.38
2023-06-29T09:31:40.671Z,88.97
2023-06-29T09:32:40.849Z,86.29
2023-06-29T09:33:40.685Z,73.38
2023-06-29T09:34:40.651Z,74.57
2023-06-29T09:35:40.747Z,76.01
2023-06-29T09:36:40.695Z,71.09
2023-06-29T09:37:40.726Z,67.72
2023-06-29T09:38:40.798Z,72.05
2023-06-29T09:39:40.815Z,76.87
2023-06-29T09:40:40.933Z,78.09
2023-06-29T09:41:40.928Z,80.28
2023-06-29T09:42:40.995Z,85.88
2023-06-29T09:43:41.061Z,83.38
2023-06-29T09:44:41.119Z,84.65
2023-06-29T09:45:41.194Z,89.65
2023-06-29T09:46:41.454Z,89.71
2023-06-29T09:49:41.352Z,94.76
2023-06-29T09:50:41.499Z,95.67
2023-06-29T09:51:41.272Z,98.09
2023-06-29T09:52:41.304Z,101.80
2023-06-29T09:53:41.270Z,99.71
2023-06-29T09:54:42.035Z,92.02
2023-06-29T09:55:41.265Z,82.57
2023-06-29T09:56:41.231Z,69.15
2023-06-29T09:57:41.268Z,67.59
2023-06-29T09:58:41.220Z,62.08
2023-06-29T09:59:41.210Z,57.92
2023-06-29T10:00:41.307Z,49.71
2023-06-29T10:01:41.300Z,47.26
2023-06-29T10:02:41.275Z,50.00
2023-06-29T10:03:41.235Z,49.95
2023-06-29T10:04:41.249Z,49.53
2023-06-29T10:05:41.177Z,50.00
2023-06-29T10:06:41.173Z,50.19
2023-06-29T10:07:41.356Z,50.51
2023-06-29T10:08:41.176Z,50.78
2023-06-29T10:09:41.191Z,50.00
2023-06-29T10:10:41.175Z,49.96
2023-06-29T10:11:41.140Z,49.81
2023-06-29T10:12:41.136Z,53.19
2023-06-29T10:13:41.150Z,53.29
2023-06-29T10:14:41.152Z,50.00
2023-06-29T10:15:41.100Z,51.67
2023-06-29T10:16:41.164Z,49.57
2023-06-29T10:17:41.145Z,50.50
2023-06-29T10:18:41.114Z,52.41
2023-06-29T10:19:41.148Z,54.79
2023-06-29T10:20:41.086Z,54.57
2023-06-29T10:21:41.096Z,50.00
2023-06-29T10:22:41.086Z,50.05
2023-06-29T10:23:41.097Z,50.33
2023-06-29T10:24:41.032Z,50.02
2023-06-29T10:25:41.091Z,51.16
2023-06-29T10:26:41.011Z,54.66
2023-06-29T10:27:41.057Z,53.33
2023-06-29T10:29:56.357Z,50.00
2023-06-29T10:30:56.390Z,50.00
2023-06-29T10:31:56.367Z,50.00
2023-06-29T10:32:56.380Z,50.00
2023-06-29T10:33:56.338Z,50.00
2023-06-29T10:34:56.366Z,52.30
2023-06-29T10:35:56.341Z,46.96
2023-06-29T10:36:56.348Z,58.01
2023-06-29T10:37:56.338Z,75.30
2023-06-29T10:38:56.357Z,72.29
2023-06-29T10:39:56.314Z,65.71
2023-06-29T10:40:56.318Z,60.66
2023-06-29T10:41:56.305Z,53.76
2023-06-29T10:42:56.350Z,50.42
2023-06-29T10:43:56.320Z,51.22
2023-06-29T10:44:56.282Z,50.10
2023-06-29T10:45:56.266Z,52.10
2023-06-29T10:46:56.476Z,55.00
2023-06-29T10:47:56.359Z,70.57
2023-06-29T10:48:56.269Z,80.05
2023-06-29T10:49:56.278Z,92.75
2023-06-29T10:50:56.269Z,78.41
2023-06-29T10:51:56.267Z,62.77
2023-06-29T10:52:56.237Z,74.18
2023-06-29T10:53:56.245Z,59.95
2023-06-29T10:54:56.234Z,50.89
2023-06-29T10:55:56.223Z,48.89
2023-06-29T10:56:56.232Z,52.25
2023-06-29T10:57:56.198Z,49.38
2023-06-29T10:58:56.262Z,56.41
2023-06-29T10:59:56.209Z,52.46
2023-06-29T11:00:56.210Z,50.12
2023-06-29T11:01:56.267Z,52.58
2023-06-29T11:02:56.297Z,60.62
2023-06-29T11:03:56.222Z,69.56
2023-06-29T11:04:56.142Z,87.52
2023-06-29T11:05:56.144Z,77.81
2023-06-29T11:06:56.166Z,90.73
2023-06-29T11:07:56.142Z,87.51
2023-06-29T11:08:56.148Z,91.43
2023-06-29T11:09:56.126Z,85.67
2023-06-29T11:10:56.120Z,63.34
2023-06-29T11:11:56.131Z,65.57
2023-06-29T11:12:56.138Z,73.80
2023-06-29T11:13:56.119Z,79.66
2023-06-29T11:15:14.159Z,85.92
2023-06-29T11:15:57.120Z,86.18
2023-06-29T11:16:56.249Z,63.09
2023-06-29T11:17:56.186Z,41.98
2023-06-29T11:18:56.091Z,41.46
2023-06-29T11:19:56.075Z,31.35
2023-06-29T11:20:56.112Z,54.15
2023-06-29T11:21:56.056Z,45.35
2023-06-29T11:22:56.044Z,51.56
2023-06-29T11:23:56.059Z,60.57
2023-06-29T11:24:56.041Z,65.09
2023-06-29T11:25:56.025Z,67.13
2023-06-29T11:26:56.044Z,77.01
2023-06-29T11:27:56.056Z,84.48
2023-06-29T11:28:56.067Z,92.28
2023-06-29T11:29:56.109Z,104.59
2023-06-29T11:30:56.593Z,112.69
2023-06-29T11:31:56.234Z,119.72
2023-06-29T11:32:56.323Z,117.19
2023-06-29T11:33:56.314Z,119.36
2023-06-29T11:34:56.349Z,128.66
2023-06-29T11:35:56.436Z,127.73
2023-06-29T11:37:09.624Z,113.40
2023-06-29T11:37:57.507Z,113.40
2023-06-29T11:38:56.424Z,85.83
2023-06-29T11:39:56.470Z,85.28
2023-06-29T11:40:56.421Z,95.29
2023-06-29T11:41:56.405Z,76.89
2023-06-29T11:42:56.424Z,76.43
2023-06-29T11:43:56.413Z,64.15
2023-06-29T11:44:56.415Z,74.05
2023-06-29T11:45:56.430Z,60.36
2023-06-29T11:47:12.238Z,46.78
2023-06-29T11:47:57.441Z,47.29
2023-06-29T11:48:56.445Z,39.76
2023-06-29T11:49:56.391Z,44.29
2023-06-29T11:50:56.472Z,25.56
2023-06-29T11:51:56.378Z,28.37
2023-06-29T11:52:56.393Z,61.14
2023-06-29T11:53:56.427Z,79.99
2023-06-29T11:54:56.367Z,88.22
2023-06-29T11:55:56.387Z,71.72
2023-06-29T11:56:56.498Z,83.70
2023-06-29T11:57:56.544Z,59.89
2023-06-29T11:58:56.652Z,54.01
2023-06-29T11:59:56.623Z,60.35
2023-06-29T12:00:56.689Z,46.91
2023-06-29T12:01:56.728Z,50.19
2023-06-29T12:02:56.798Z,45.99
2023-06-29T12:03:56.968Z,51.21
2023-06-29T12:04:57.071Z,61.14
2023-06-29T12:05:56.935Z,77.04
2023-06-29T12:06:57.050Z,90.88
2023-06-29T12:07:57.158Z,101.69
2023-06-29T12:08:57.121Z,99.40
2023-06-29T12:09:57.151Z,123.27
2023-06-29T12:10:57.212Z,144.15
2023-06-29T12:11:58.045Z,160.45
2023-06-29T12:12:57.326Z,166.26
2023-06-29T12:13:57.346Z,181.61
2023-06-29T12:14:57.384Z,195.23
2023-06-29T12:18:01.128Z,200.18
2023-06-29T12:18:57.556Z,200.55
2023-06-29T12:20:09.825Z,203.67
2023-06-29T12:20:58.499Z,201.04
2023-06-29T12:21:57.797Z,204.89
2023-06-29T12:22:57.364Z,215.22
2023-06-29T12:23:57.380Z,227.52
2023-06-29T12:24:57.376Z,232.91
2023-06-29T12:25:57.393Z,214.25
2023-06-29T12:26:57.373Z,201.88
2023-06-29T12:27:57.373Z,199.95
2023-06-29T12:28:57.328Z,199.07
2023-06-29T12:29:57.347Z,199.27
2023-06-29T12:30:57.438Z,200.00
2023-06-29T12:31:57.501Z,200.00
2023-06-29T12:32:57.574Z,200.79
2023-06-29T12:33:57.584Z,200.00
2023-06-29T12:34:57.632Z,199.40
2023-06-29T12:35:57.664Z,198.85
2023-06-29T12:36:57.760Z,198.62
2023-06-29T12:37:57.811Z,194.23
2023-06-29T12:38:57.861Z,194.29
2023-06-29T12:39:57.920Z,195.74
2023-06-29T12:40:57.993Z,196.63
2023-06-29T12:41:58.040Z,200.00
2023-06-29T12:42:58.140Z,200.00
2023-06-29T12:43:58.125Z,200.63
2023-06-29T12:44:58.198Z,199.69
2023-06-29T12:45:58.508Z,199.87
2023-06-29T12:46:58.398Z,200.00
2023-06-29T12:47:58.347Z,199.26
2023-06-29T12:48:58.396Z,199.20
2023-06-29T12:49:58.428Z,199.55
2023-06-29T12:50:58.476Z,200.39
2023-06-29T12:51:58.513Z,200.00
2023-06-29T12:52:58.561Z,200.00
2023-06-29T12:53:58.604Z,196.89
2023-06-29T12:54:58.622Z,199.97
2023-06-29T12:55:58.694Z,198.78
2023-06-29T12:56:58.735Z,199.98
2023-06-29T12:57:58.769Z,198.98
2023-06-29T12:58:58.798Z,198.46
2023-06-29T12:59:58.838Z,198.60